MMZC/ZCL METAR and TAF weather

Enter ICAO airport designator
Station Type Date Time Source
MMZC METAR 2019/11/15 04:40 UTC NOAA

MMZC 150440Z 00000KT 10SM SKC 08/06 A3034


Station Type Date Time Source
MMZC Decoded METAR 2019/11/15 04:40 UTC NOAA

Zacatecas Airport, Mexico (MMZC) 22-54N 102-41W
Nov 14, 2019 - 11:40 PM EST / 2019.11.15 0440 UTC
Wind: Calm:0
Visibility: 10 mile(s):0
Sky conditions: clear
Temperature: 46 F (8 C)
Dew Point: 42 F (6 C)
Relative Humidity: 87%
Pressure (altimeter): 30.34 in. Hg (1027 hPa)
ob: MMZC 150440Z 00000KT 10SM SKC 08/06 A3034
cycle: 4

Station Type Date Time Source
MMZC TAF 2019/11/15 06:15 UTC NOAA

TAF MMZC 150509Z 1506/1612 00000KT P6SM SKC TX20/1521Z TN06/1512Z
FM151000 00000KT 4SM HZ SCT015
TEMPO 1512/1515 2SM BR BKN010
FM151800 14010KT P6SM BKN030
FM160300 14005KT 6SM HZ SCT020

Example: see airport list